Time;durP1;ratioP1;P1;durP2;ratioP2;P2;SDS_P1;SDS_P2;PMS_P1;PMS_P2;Temp;Humidity;BMP_temperature;BMP_pressure;BME280_temperature;BME280_humidity;BME280_pressure;Samples;Min_cycle;Max_cycle;Signal;HPM_P1;HPM_P2
2022/12/23 00:02:08;;;;;;;0.45;0.45;;;;;;;;;;5094428;28;20027;-79
2022/12/23 00:04:34;;;;;;;0.28;0.28;;;;;;;;;;5095896;28;20035;-79
2022/12/23 00:06:59;;;;;;;0.32;0.30;;;;;;;;;;5094843;28;20041;-81
2022/12/23 00:09:25;;;;;;;0.00;0.00;;;;;;;;;;5095182;28;20430;-80
2022/12/23 00:17:18;;;;;;;1.33;0.52;;;;;;;;;;5095680;28;20023;-78
2022/12/23 00:19:43;;;;;;;0.00;0.00;;;;;;;;;;5095780;28;20008;-78
2022/12/23 00:22:10;;;;;;;1.15;0.65;;;;;;;;;;5094374;28;20024;-79
2022/12/23 00:24:35;;;;;;;0.85;0.52;;;;;;;;;;5094553;28;20059;-76
2022/12/23 00:27:01;;;;;;;0.08;0.08;;;;;;;;;;5096438;28;20023;-80
2022/12/23 00:29:26;;;;;;;0.75;0.63;;;;;;;;;;5095014;28;20046;-81
2022/12/23 00:31:51;;;;;;;3.75;0.70;;;;;;;;;;5096203;28;20016;-78
2022/12/23 00:34:18;;;;;;;0.55;0.55;;;;;;;;;;5094588;28;20058;-79
2022/12/23 00:36:44;;;;;;;2.75;0.57;;;;;;;;;;5095864;28;20077;-80
2022/12/23 00:44:39;;;;;;;0.10;0.10;;;;;;;;;;5096249;28;20042;-79
2022/12/23 00:47:04;;;;;;;0.05;0.05;;;;;;;;;;5094114;28;20027;-78
2022/12/23 00:49:42;;;;;;;0.30;0.30;;;;;;;;;;5095100;28;20016;-76
2022/12/23 00:52:10;;;;;;;4.57;0.30;;;;;;;;;;5094708;28;20020;-76
2022/12/23 00:54:35;;;;;;;0.30;0.30;;;;;;;;;;5092591;28;20046;-77
2022/12/23 00:57:01;;;;;;;0.05;0.05;;;;;;;;;;5094092;28;20016;-76
2022/12/23 00:59:26;;;;;;;0.60;0.10;;;;;;;;;;5093279;28;20048;-75
2022/12/23 01:07:20;;;;;;;0.00;0.00;;;;;;;;;;5094413;28;20035;-72
2022/12/23 01:09:46;;;;;;;0.00;0.00;;;;;;;;;;5093283;28;20476;-73
2022/12/23 01:12:11;;;;;;;0.00;0.00;;;;;;;;;;5093311;28;20031;-73
2022/12/23 01:14:37;;;;;;;0.80;0.63;;;;;;;;;;5094303;28;20027;-73
2022/12/23 01:17:04;;;;;;;1.80;0.93;;;;;;;;;;5094170;28;20020;-72
2022/12/23 01:19:29;;;;;;;0.35;0.35;;;;;;;;;;5092850;28;20024;-73
2022/12/23 01:21:55;;;;;;;0.10;0.10;;;;;;;;;;5092658;28;20020;-74
2022/12/23 01:24:20;;;;;;;0.43;0.17;;;;;;;;;;5094003;28;20040;-75
2022/12/23 01:26:46;;;;;;;0.25;0.25;;;;;;;;;;5094329;28;20490;-74
2022/12/23 01:29:11;;;;;;;0.05;0.05;;;;;;;;;;5094151;28;20468;-77
2022/12/23 01:31:36;;;;;;;0.10;0.10;;;;;;;;;;5092755;28;20115;-74
2022/12/23 01:34:02;;;;;;;0.00;0.00;;;;;;;;;;5092525;28;20020;-74
2022/12/23 01:36:27;;;;;;;0.10;0.10;;;;;;;;;;5092330;28;20020;-73
2022/12/23 01:38:55;;;;;;;0.08;0.08;;;;;;;;;;5092614;28;20020;-74
2022/12/23 01:44:28;;;;;;;0.40;0.40;;;;;;;;;;5093552;28;20097;-73
2022/12/23 01:46:53;;;;;;;0.15;0.10;;;;;;;;;;5093824;28;20081;-72
2022/12/23 01:49:19;;;;;;;0.05;0.05;;;;;;;;;;5093458;28;20099;-73
2022/12/23 01:51:44;;;;;;;0.00;0.00;;;;;;;;;;5092300;28;20016;-74
2022/12/23 01:54:10;;;;;;;0.70;0.70;;;;;;;;;;5093780;28;20091;-72
2022/12/23 01:56:36;;;;;;;1.27;0.32;;;;;;;;;;5093998;28;20026;-76
2022/12/23 01:59:09;;;;;;;0.32;0.32;;;;;;;;;;5093458;28;20031;-76
2022/12/23 02:04:19;;;;;;;1.63;0.45;;;;;;;;;;5093863;28;20085;-73
2022/12/23 02:09:35;;;;;;;0.00;0.00;;;;;;;;;;5093738;28;20039;-75
2022/12/23 02:12:20;;;;;;;0.88;0.88;;;;;;;;;;5092110;28;20373;-75
2022/12/23 02:17:59;;;;;;;0.50;0.50;;;;;;;;;;5093051;28;20407;-74
2022/12/23 02:20:57;;;;;;;1.08;1.02;;;;;;;;;;5093005;28;20020;-74
2022/12/23 02:23:25;;;;;;;0.20;0.20;;;;;;;;;;5047523;28;20063;-76
2022/12/23 02:26:10;;;;;;;0.20;0.20;;;;;;;;;;5091579;28;20035;-73
2022/12/23 02:28:53;;;;;;;0.08;0.00;;;;;;;;;;5093041;28;20503;-74
2022/12/23 02:31:20;;;;;;;0.03;0.03;;;;;;;;;;5091473;28;20031;-74
2022/12/23 02:33:45;;;;;;;0.10;0.10;;;;;;;;;;5091625;28;20028;-75
2022/12/23 02:36:21;;;;;;;0.55;0.55;;;;;;;;;;5092632;28;20020;-75
2022/12/23 02:38:55;;;;;;;0.60;0.13;;;;;;;;;;5091388;28;20586;-74
2022/12/23 02:41:36;;;;;;;0.63;0.20;;;;;;;;;;5091334;28;20020;-75
2022/12/23 02:44:07;;;;;;;0.00;0.00;;;;;;;;;;5092970;28;20020;-75
2022/12/23 02:46:36;;;;;;;0.35;0.35;;;;;;;;;;5092620;28;20392;-75
2022/12/23 02:49:08;;;;;;;0.13;0.13;;;;;;;;;;5091081;28;20016;-75
2022/12/23 02:51:37;;;;;;;0.00;0.00;;;;;;;;;;5091112;28;20491;-74
2022/12/23 02:54:04;;;;;;;0.20;0.20;;;;;;;;;;5091249;28;20039;-75
2022/12/23 02:56:31;;;;;;;0.00;0.00;;;;;;;;;;5092425;28;20068;-75
2022/12/23 02:59:07;;;;;;;0.00;0.00;;;;;;;;;;5091336;28;20156;-78
2022/12/23 03:01:33;;;;;;;0.00;0.00;;;;;;;;;;5091051;28;20040;-76
2022/12/23 03:03:59;;;;;;;0.05;0.05;;;;;;;;;;5091208;28;20021;-75
2022/12/23 03:06:30;;;;;;;0.45;0.28;;;;;;;;;;5091221;28;20043;-75
2022/12/23 03:08:57;;;;;;;0.30;0.22;;;;;;;;;;5092305;28;20028;-79
2022/12/23 03:11:27;;;;;;;0.00;0.00;;;;;;;;;;5091033;28;20114;-75
2022/12/23 03:14:05;;;;;;;0.10;0.10;;;;;;;;;;5090938;28;20024;-75
2022/12/23 03:16:36;;;;;;;0.25;0.25;;;;;;;;;;5092088;28;20028;-75
2022/12/23 03:19:33;;;;;;;0.65;0.35;;;;;;;;;;5090372;28;20031;-77
2022/12/23 03:21:59;;;;;;;0.00;0.00;;;;;;;;;;5074809;28;20032;-77
2022/12/23 03:24:34;;;;;;;0.17;0.17;;;;;;;;;;5090847;28;20035;-76
2022/12/23 03:27:03;;;;;;;0.00;0.00;;;;;;;;;;5092258;28;20513;-79
2022/12/23 03:29:34;;;;;;;0.00;0.00;;;;;;;;;;5090971;28;20034;-73
2022/12/23 03:32:00;;;;;;;0.25;0.25;;;;;;;;;;5090749;28;20028;-72
2022/12/23 03:34:28;;;;;;;0.03;0.03;;;;;;;;;;5090644;28;20035;-70
2022/12/23 03:36:56;;;;;;;0.00;0.00;;;;;;;;;;5092122;28;20023;-70
2022/12/23 03:39:25;;;;;;;16.70;5.13;;;;;;;;;;5092323;28;20030;-69
2022/12/23 03:41:54;;;;;;;15.10;4.68;;;;;;;;;;5092321;28;20023;-70
2022/12/23 03:44:25;;;;;;;17.92;6.80;;;;;;;;;;5090733;28;20468;-70
2022/12/23 03:46:53;;;;;;;18.30;6.40;;;;;;;;;;5092052;28;20024;-69
2022/12/23 03:49:23;;;;;;;18.92;6.97;;;;;;;;;;5091617;28;20020;-69
2022/12/23 03:51:54;;;;;;;21.33;6.95;;;;;;;;;;5091776;28;20465;-68
2022/12/23 03:54:23;;;;;;;20.90;7.32;;;;;;;;;;5090528;28;20070;-65
2022/12/23 03:56:52;;;;;;;20.60;6.97;;;;;;;;;;5092227;28;20399;-62
2022/12/23 03:59:30;;;;;;;28.63;8.70;;;;;;;;;;5091311;28;20412;-63
2022/12/23 04:01:55;;;;;;;24.15;9.05;;;;;;;;;;5091628;28;20032;-66
2022/12/23 04:04:39;;;;;;;28.92;9.90;;;;;;;;;;5090290;28;20031;-66
2022/12/23 04:07:09;;;;;;;30.60;9.68;;;;;;;;;;5091435;28;20024;-63
2022/12/23 04:09:35;;;;;;;13.32;5.22;;;;;;;;;;5090413;28;20476;-62
2022/12/23 04:12:00;;;;;;;8.88;3.28;;;;;;;;;;5091647;28;20016;-62
2022/12/23 04:14:26;;;;;;;3.90;1.73;;;;;;;;;;5091678;28;20027;-66
2022/12/23 04:16:53;;;;;;;2.38;1.15;;;;;;;;;;5091549;28;20016;-65
2022/12/23 04:19:19;;;;;;;0.00;0.00;;;;;;;;;;5091477;28;20016;-62
2022/12/23 04:21:44;;;;;;;0.10;0.10;;;;;;;;;;5091692;28;20346;-62
2022/12/23 04:24:10;;;;;;;0.00;0.00;;;;;;;;;;5091612;28;20062;-62
2022/12/23 04:26:35;;;;;;;0.00;0.00;;;;;;;;;;5090103;28;20070;-62
2022/12/23 04:29:01;;;;;;;0.00;0.00;;;;;;;;;;5091263;28;20119;-62
2022/12/23 04:31:26;;;;;;;0.00;0.00;;;;;;;;;;5093605;28;20016;-57
2022/12/23 04:33:51;;;;;;;0.00;0.00;;;;;;;;;;5093868;28;20016;-56
2022/12/23 04:36:17;;;;;;;0.00;0.00;;;;;;;;;;5093868;28;20016;-58
2022/12/23 04:38:42;;;;;;;0.00;0.00;;;;;;;;;;5093704;28;20087;-58
2022/12/23 04:41:08;;;;;;;0.00;0.00;;;;;;;;;;5094679;28;20012;-60
2022/12/23 04:43:33;;;;;;;0.00;0.00;;;;;;;;;;5093355;28;20020;-58
2022/12/23 04:45:59;;;;;;;0.00;0.00;;;;;;;;;;5094624;28;20032;-58
2022/12/23 04:48:24;;;;;;;0.00;0.00;;;;;;;;;;5094790;28;20177;-59
2022/12/23 04:50:49;;;;;;;0.00;0.00;;;;;;;;;;5093517;28;20383;-57
2022/12/23 04:53:15;;;;;;;0.00;0.00;;;;;;;;;;5093162;28;20027;-58
2022/12/23 04:55:40;;;;;;;0.00;0.00;;;;;;;;;;5094653;28;20484;-57
2022/12/23 04:58:06;;;;;;;0.00;0.00;;;;;;;;;;5095471;28;20103;-58
2022/12/23 05:00:31;;;;;;;0.00;0.00;;;;;;;;;;5093254;28;20125;-58
2022/12/23 05:02:57;;;;;;;0.00;0.00;;;;;;;;;;5094457;28;20460;-57
2022/12/23 05:05:22;;;;;;;0.00;0.00;;;;;;;;;;5093371;28;20073;-58
2022/12/23 05:07:49;;;;;;;0.00;0.00;;;;;;;;;;5093305;28;20024;-57
2022/12/23 05:10:15;;;;;;;0.10;0.10;;;;;;;;;;5094189;28;20021;-57
2022/12/23 05:12:40;;;;;;;0.00;0.00;;;;;;;;;;5093021;28;20024;-58
2022/12/23 05:15:06;;;;;;;0.00;0.00;;;;;;;;;;5093881;28;20046;-58
2022/12/23 05:17:32;;;;;;;0.00;0.00;;;;;;;;;;5094427;28;20024;-60
2022/12/23 05:19:57;;;;;;;0.00;0.00;;;;;;;;;;5094477;28;20012;-57
2022/12/23 05:22:26;;;;;;;0.00;0.00;;;;;;;;;;5094444;28;20018;-57
2022/12/23 05:24:51;;;;;;;0.00;0.00;;;;;;;;;;5094140;28;20476;-58
2022/12/23 05:27:17;;;;;;;0.00;0.00;;;;;;;;;;5092560;28;20119;-59
2022/12/23 05:29:42;;;;;;;0.00;0.00;;;;;;;;;;5094237;28;20027;-58
2022/12/23 05:32:07;;;;;;;0.00;0.00;;;;;;;;;;5092842;28;20499;-57
2022/12/23 05:34:33;;;;;;;0.00;0.00;;;;;;;;;;5093811;28;20016;-57
2022/12/23 05:36:58;;;;;;;0.00;0.00;;;;;;;;;;5093483;28;20015;-57
2022/12/23 05:39:24;;;;;;;0.00;0.00;;;;;;;;;;5092369;28;20020;-58
2022/12/23 05:41:49;;;;;;;0.00;0.00;;;;;;;;;;5093452;28;20023;-57
2022/12/23 05:44:14;;;;;;;0.00;0.00;;;;;;;;;;5091868;28;20036;-59
2022/12/23 05:46:40;;;;;;;0.00;0.00;;;;;;;;;;5093677;28;20012;-59
2022/12/23 05:49:05;;;;;;;0.00;0.00;;;;;;;;;;5093814;28;20093;-59
2022/12/23 05:51:31;;;;;;;0.00;0.00;;;;;;;;;;5093375;28;20016;-57
2022/12/23 05:53:56;;;;;;;0.00;0.00;;;;;;;;;;5092086;28;20020;-58
2022/12/23 05:56:22;;;;;;;0.00;0.00;;;;;;;;;;5093491;28;20020;-59
2022/12/23 05:58:47;;;;;;;0.00;0.00;;;;;;;;;;5093251;28;20016;-58
2022/12/23 06:01:12;;;;;;;0.05;0.05;;;;;;;;;;5092866;28;20051;-57
2022/12/23 06:03:39;;;;;;;0.00;0.00;;;;;;;;;;5093166;28;20027;-57
2022/12/23 06:06:05;;;;;;;0.00;0.00;;;;;;;;;;5091431;28;20059;-58
2022/12/23 06:08:30;;;;;;;0.00;0.00;;;;;;;;;;5093019;28;20048;-59
2022/12/23 06:10:56;;;;;;;0.00;0.00;;;;;;;;;;5092666;28;20095;-64
2022/12/23 06:13:21;;;;;;;0.00;0.00;;;;;;;;;;5093178;28;20067;-58
2022/12/23 06:15:47;;;;;;;0.00;0.00;;;;;;;;;;5093258;28;20061;-58
2022/12/23 06:18:12;;;;;;;0.00;0.00;;;;;;;;;;5093166;28;20027;-58
2022/12/23 06:20:38;;;;;;;0.00;0.00;;;;;;;;;;5093012;28;20023;-59
2022/12/23 06:23:03;;;;;;;0.00;0.00;;;;;;;;;;5093102;28;20539;-58
2022/12/23 06:25:29;;;;;;;0.00;0.00;;;;;;;;;;5092979;28;20032;-58
2022/12/23 06:27:54;;;;;;;0.00;0.00;;;;;;;;;;5093336;28;20023;-58
2022/12/23 06:30:19;;;;;;;0.00;0.00;;;;;;;;;;5092520;28;20385;-58
2022/12/23 06:32:45;;;;;;;0.00;0.00;;;;;;;;;;5092673;28;20535;-57
2022/12/23 06:35:10;;;;;;;0.00;0.00;;;;;;;;;;5092422;28;20019;-58
2022/12/23 06:37:36;;;;;;;0.00;0.00;;;;;;;;;;5092493;28;20012;-59
2022/12/23 06:40:01;;;;;;;0.00;0.00;;;;;;;;;;5091306;28;20521;-58
2022/12/23 06:42:27;;;;;;;0.00;0.00;;;;;;;;;;5092276;28;20066;-59
2022/12/23 06:44:52;;;;;;;0.00;0.00;;;;;;;;;;5092645;28;20107;-59
2022/12/23 06:47:17;;;;;;;0.00;0.00;;;;;;;;;;5090857;28;20624;-58
2022/12/23 06:49:43;;;;;;;0.00;0.00;;;;;;;;;;5092241;28;20020;-59
2022/12/23 06:52:09;;;;;;;0.00;0.00;;;;;;;;;;5091173;28;20107;-58
2022/12/23 06:54:34;;;;;;;0.00;0.00;;;;;;;;;;5091623;28;20035;-57
2022/12/23 06:56:59;;;;;;;0.00;0.00;;;;;;;;;;5091329;28;20043;-59
2022/12/23 06:59:25;;;;;;;0.00;0.00;;;;;;;;;;5091829;28;20132;-59
2022/12/23 07:01:50;;;;;;;0.00;0.00;;;;;;;;;;5092430;28;20349;-59
2022/12/23 07:04:16;;;;;;;0.00;0.00;;;;;;;;;;5092293;28;20016;-58
2022/12/23 07:06:41;;;;;;;0.10;0.10;;;;;;;;;;5091198;28;20035;-59
2022/12/23 07:09:07;;;;;;;0.00;0.00;;;;;;;;;;5090314;28;20024;-59
2022/12/23 07:11:33;;;;;;;2.03;0.30;;;;;;;;;;5090359;28;20039;-58
2022/12/23 07:13:59;;;;;;;0.00;0.00;;;;;;;;;;5092167;28;20103;-60
2022/12/23 07:16:24;;;;;;;0.00;0.00;;;;;;;;;;5092157;28;20024;-60
2022/12/23 07:18:50;;;;;;;0.00;0.00;;;;;;;;;;5090332;28;20545;-57
2022/12/23 07:21:15;;;;;;;0.00;0.00;;;;;;;;;;5091852;28;20933;-59
2022/12/23 07:23:40;;;;;;;0.00;0.00;;;;;;;;;;5092005;28;20016;-59
2022/12/23 07:26:06;;;;;;;0.00;0.00;;;;;;;;;;5091783;28;20032;-59
2022/12/23 07:28:31;;;;;;;0.00;0.00;;;;;;;;;;5091941;28;20062;-59
2022/12/23 07:30:56;;;;;;;0.00;0.00;;;;;;;;;;5092052;28;20020;-58
2022/12/23 07:33:22;;;;;;;0.00;0.00;;;;;;;;;;5091782;28;20027;-58
2022/12/23 07:35:47;;;;;;;0.00;0.00;;;;;;;;;;5091949;28;20012;-59
2022/12/23 07:38:13;;;;;;;0.00;0.00;;;;;;;;;;5091950;28;20020;-59
2022/12/23 07:40:38;;;;;;;0.00;0.00;;;;;;;;;;5091400;28;20052;-60
2022/12/23 07:43:04;;;;;;;0.00;0.00;;;;;;;;;;5091171;28;20016;-60
2022/12/23 07:45:30;;;;;;;0.00;0.00;;;;;;;;;;5091806;28;20028;-59
2022/12/23 07:47:56;;;;;;;0.00;0.00;;;;;;;;;;5091860;28;20035;-58
2022/12/23 07:50:22;;;;;;;0.00;0.00;;;;;;;;;;5091261;28;20436;-59
2022/12/23 07:52:48;;;;;;;0.00;0.00;;;;;;;;;;5091288;28;20381;-57
2022/12/23 07:55:13;;;;;;;0.00;0.00;;;;;;;;;;5090118;28;20020;-58
2022/12/23 07:57:39;;;;;;;0.00;0.00;;;;;;;;;;5091489;28;20024;-59
2022/12/23 08:00:06;;;;;;;0.00;0.00;;;;;;;;;;5091698;28;20048;-57
2022/12/23 08:02:31;;;;;;;0.00;0.00;;;;;;;;;;5091830;28;20016;-59
2022/12/23 08:04:57;;;;;;;0.00;0.00;;;;;;;;;;5093184;28;20032;-58
2022/12/23 08:07:22;;;;;;;0.00;0.00;;;;;;;;;;5095362;28;20020;-59
2022/12/23 08:09:48;;;;;;;0.00;0.00;;;;;;;;;;5095468;28;20587;-59
2022/12/23 08:12:13;;;;;;;0.00;0.00;;;;;;;;;;5095204;28;20048;-57
2022/12/23 08:14:38;;;;;;;0.10;0.10;;;;;;;;;;5095445;28;20027;-57
2022/12/23 08:17:04;;;;;;;0.00;0.00;;;;;;;;;;5095034;28;20018;-58
2022/12/23 08:19:29;;;;;;;0.00;0.00;;;;;;;;;;5093739;28;20019;-58
2022/12/23 08:21:55;;;;;;;0.00;0.00;;;;;;;;;;5095025;28;20016;-58
2022/12/23 08:24:21;;;;;;;0.00;0.00;;;;;;;;;;5094685;28;20419;-58
2022/12/23 08:26:47;;;;;;;0.00;0.00;;;;;;;;;;5093427;28;20024;-58
2022/12/23 08:29:12;;;;;;;0.00;0.00;;;;;;;;;;5094939;28;20015;-58
2022/12/23 08:31:38;;;;;;;0.00;0.00;;;;;;;;;;5093655;28;20448;-60
2022/12/23 08:34:03;;;;;;;0.00;0.00;;;;;;;;;;5094174;28;20495;-57
2022/12/23 08:36:33;;;;;;;0.00;0.00;;;;;;;;;;5093348;28;20038;-58
2022/12/23 08:38:59;;;;;;;0.00;0.00;;;;;;;;;;5094169;28;20338;-57
2022/12/23 08:41:26;;;;;;;0.00;0.00;;;;;;;;;;5094793;28;20020;-58
2022/12/23 08:43:52;;;;;;;0.00;0.00;;;;;;;;;;5094807;28;20020;-57
2022/12/23 08:46:17;;;;;;;0.00;0.00;;;;;;;;;;5094490;28;20124;-59
2022/12/23 08:48:43;;;;;;;0.13;0.13;;;;;;;;;;5095038;28;20065;-57
2022/12/23 08:51:10;;;;;;;0.00;0.00;;;;;;;;;;5094538;28;20020;-59
2022/12/23 08:53:36;;;;;;;0.00;0.00;;;;;;;;;;5094212;28;20016;-58
2022/12/23 08:56:12;;;;;;;0.00;0.00;;;;;;;;;;5094349;28;20012;-58
2022/12/23 08:58:38;;;;;;;0.00;0.00;;;;;;;;;;5094682;28;20073;-58
2022/12/23 09:01:05;;;;;;;0.00;0.00;;;;;;;;;;5092092;28;20048;-58
2022/12/23 09:03:30;;;;;;;0.00;0.00;;;;;;;;;;5094153;28;20012;-61
2022/12/23 09:05:56;;;;;;;0.00;0.00;;;;;;;;;;5093180;28;20400;-58
2022/12/23 09:08:21;;;;;;;0.00;0.00;;;;;;;;;;5093981;28;20020;-58
2022/12/23 09:10:47;;;;;;;0.00;0.00;;;;;;;;;;5094158;28;20047;-59
2022/12/23 09:13:12;;;;;;;0.00;0.00;;;;;;;;;;5092271;28;20057;-57
2022/12/23 09:15:41;;;;;;;0.00;0.00;;;;;;;;;;5093732;28;20489;-57
2022/12/23 09:18:07;;;;;;;0.00;0.00;;;;;;;;;;5092287;28;20464;-58
2022/12/23 09:20:32;;;;;;;0.00;0.00;;;;;;;;;;5092522;28;20024;-58
2022/12/23 09:22:59;;;;;;;0.00;0.00;;;;;;;;;;5093321;28;20019;-59
2022/12/23 09:25:24;;;;;;;0.00;0.00;;;;;;;;;;5093849;28;20032;-59
2022/12/23 09:27:50;;;;;;;0.00;0.00;;;;;;;;;;5092626;28;20491;-57
2022/12/23 09:30:15;;;;;;;0.45;0.45;;;;;;;;;;5092114;28;20052;-57
2022/12/23 09:32:41;;;;;;;0.52;0.52;;;;;;;;;;5093416;28;20016;-58
2022/12/23 09:35:06;;;;;;;0.00;0.00;;;;;;;;;;5091494;28;20020;-58
2022/12/23 09:37:32;;;;;;;0.00;0.00;;;;;;;;;;5091341;28;20023;-57
2022/12/23 09:39:57;;;;;;;0.08;0.08;;;;;;;;;;5092231;28;20032;-61
2022/12/23 09:42:26;;;;;;;0.00;0.00;;;;;;;;;;5093460;28;20024;-57
2022/12/23 09:44:54;;;;;;;0.25;0.20;;;;;;;;;;5091664;28;20035;-57
2022/12/23 09:47:22;;;;;;;0.00;0.00;;;;;;;;;;5091786;28;20026;-59
2022/12/23 09:49:50;;;;;;;0.00;0.00;;;;;;;;;;5091748;28;20022;-59
2022/12/23 09:52:19;;;;;;;0.00;0.00;;;;;;;;;;5091555;28;20055;-59
2022/12/23 09:54:47;;;;;;;0.00;0.00;;;;;;;;;;5093019;28;20024;-60
2022/12/23 09:57:18;;;;;;;0.00;0.00;;;;;;;;;;5091352;28;20090;-59
2022/12/23 09:59:59;;;;;;;0.45;0.45;;;;;;;;;;5091521;28;20096;-58
2022/12/23 10:02:37;;;;;;;0.00;0.00;;;;;;;;;;5092665;28;20136;-60
2022/12/23 10:05:03;;;;;;;0.00;0.00;;;;;;;;;;5091308;28;20034;-61
2022/12/23 10:07:38;;;;;;;0.00;0.00;;;;;;;;;;5091575;28;20019;-60
2022/12/23 10:10:16;;;;;;;1.45;0.70;;;;;;;;;;5092819;28;20024;-60
2022/12/23 10:12:44;;;;;;;0.85;0.85;;;;;;;;;;5091426;28;20070;-60
2022/12/23 10:15:17;;;;;;;0.00;0.00;;;;;;;;;;5091384;28;20016;-60
2022/12/23 10:17:43;;;;;;;0.00;0.00;;;;;;;;;;5092998;28;20020;-60
2022/12/23 10:20:13;;;;;;;0.70;0.47;;;;;;;;;;5093253;28;20042;-61
2022/12/23 10:22:41;;;;;;;0.13;0.13;;;;;;;;;;5092866;28;20020;-61
2022/12/23 10:25:13;;;;;;;0.00;0.00;;;;;;;;;;5092467;28;20032;-61
2022/12/23 10:27:39;;;;;;;0.10;0.10;;;;;;;;;;5090757;28;20016;-63
2022/12/23 10:30:12;;;;;;;0.00;0.00;;;;;;;;;;5092277;28;20607;-61
2022/12/23 10:32:45;;;;;;;0.20;0.20;;;;;;;;;;5091249;28;20114;-61
2022/12/23 10:35:31;;;;;;;0.00;0.00;;;;;;;;;;5092041;28;20495;-61
2022/12/23 10:38:04;;;;;;;0.00;0.00;;;;;;;;;;5092496;28;20024;-59
2022/12/23 10:40:29;;;;;;;0.00;0.00;;;;;;;;;;5091396;28;20435;-61
2022/12/23 10:43:21;;;;;;;0.00;0.00;;;;;;;;;;5092752;28;20012;-59
2022/12/23 10:45:58;;;;;;;0.00;0.00;;;;;;;;;;5068127;28;20123;-60
2022/12/23 10:48:24;;;;;;;0.00;0.00;;;;;;;;;;5090107;28;20024;-62
2022/12/23 10:51:00;;;;;;;0.00;0.00;;;;;;;;;;5091988;28;20028;-62
2022/12/23 10:53:29;;;;;;;0.00;0.00;;;;;;;;;;5092583;28;20634;-67
2022/12/23 10:55:55;;;;;;;0.00;0.00;;;;;;;;;;5092034;28;20008;-64
2022/12/23 10:58:21;;;;;;;0.08;0.08;;;;;;;;;;5090962;28;20381;-63
2022/12/23 11:00:57;;;;;;;0.00;0.00;;;;;;;;;;5090192;28;20484;-63
2022/12/23 11:03:35;;;;;;;0.45;0.45;;;;;;;;;;5091410;28;20426;-64
2022/12/23 11:06:01;;;;;;;0.00;0.00;;;;;;;;;;5090779;28;20032;-65
2022/12/23 11:08:28;;;;;;;4.03;1.67;;;;;;;;;;5091996;28;20020;-68
2022/12/23 11:10:54;;;;;;;0.05;0.05;;;;;;;;;;5090801;28;20020;-65
2022/12/23 11:13:45;;;;;;;0.20;0.20;;;;;;;;;;5091620;28;20426;-65
2022/12/23 11:16:13;;;;;;;0.22;0.22;;;;;;;;;;5086836;28;20032;-65
2022/12/23 11:18:50;;;;;;;0.20;0.20;;;;;;;;;;5092077;28;20380;-65
2022/12/23 11:21:16;;;;;;;0.00;0.00;;;;;;;;;;5091893;28;20028;-65
2022/12/23 11:23:42;;;;;;;0.10;0.10;;;;;;;;;;5091737;28;20027;-64
2022/12/23 11:26:10;;;;;;;0.00;0.00;;;;;;;;;;5091441;28;20066;-66
2022/12/23 11:28:37;;;;;;;0.00;0.00;;;;;;;;;;5090428;28;20031;-66
2022/12/23 11:31:08;;;;;;;0.00;0.00;;;;;;;;;;5089859;28;20036;-65
2022/12/23 11:33:38;;;;;;;0.00;0.00;;;;;;;;;;5090412;28;20472;-65
2022/12/23 11:36:13;;;;;;;0.00;0.00;;;;;;;;;;5091799;28;20043;-65
2022/12/23 11:38:40;;;;;;;;;;;;;;;;;;5090910;28;20031;-65
2022/12/23 11:41:06;;;;;;;0.00;0.00;;;;;;;;;;5095175;28;19911;-65
2022/12/23 11:43:33;;;;;;;0.00;0.00;;;;;;;;;;5095830;28;20384;-64
2022/12/23 11:46:15;;;;;;;0.08;0.08;;;;;;;;;;5095910;28;20081;-67
2022/12/23 11:48:41;;;;;;;0.00;0.00;;;;;;;;;;5094429;28;20024;-65
2022/12/23 11:51:06;;;;;;;0.00;0.00;;;;;;;;;;5093993;28;20478;-66
2022/12/23 11:53:32;;;;;;;0.10;0.10;;;;;;;;;;5095801;28;20556;-65
2022/12/23 11:55:57;;;;;;;0.95;0.90;;;;;;;;;;5096057;28;20041;-66
2022/12/23 11:58:23;;;;;;;0.00;0.00;;;;;;;;;;5095871;28;20031;-65
2022/12/23 12:00:53;;;;;;;0.00;0.00;;;;;;;;;;5095548;28;20048;-66
2022/12/23 12:03:21;;;;;;;0.00;0.00;;;;;;;;;;5095444;28;20016;-66
2022/12/23 12:05:48;;;;;;;0.00;0.00;;;;;;;;;;5094811;28;20063;-66
2022/12/23 12:08:17;;;;;;;0.00;0.00;;;;;;;;;;5094941;28;20560;-66
2022/12/23 12:10:43;;;;;;;1.13;0.57;;;;;;;;;;5094313;28;20452;-67
2022/12/23 12:13:24;;;;;;;0.00;0.00;;;;;;;;;;5095475;28;20095;-67
2022/12/23 12:16:10;;;;;;;0.22;0.22;;;;;;;;;;5094114;28;20345;-65
2022/12/23 12:18:38;;;;;;;0.00;0.00;;;;;;;;;;5084489;28;20054;-66
2022/12/23 12:21:12;;;;;;;0.00;0.00;;;;;;;;;;5095294;28;20020;-66
2022/12/23 12:23:56;;;;;;;0.10;0.10;;;;;;;;;;5093950;28;20028;-66
2022/12/23 12:26:27;;;;;;;0.00;0.00;;;;;;;;;;5095374;28;20472;-66
2022/12/23 12:28:57;;;;;;;0.00;0.00;;;;;;;;;;5095467;28;20030;-66
2022/12/23 12:31:24;;;;;;;0.00;0.00;;;;;;;;;;5095533;28;20066;-66
2022/12/23 12:33:56;;;;;;;0.00;0.00;;;;;;;;;;5093963;28;20476;-69
2022/12/23 12:36:36;;;;;;;0.00;0.00;;;;;;;;;;5094077;28;20052;-70
2022/12/23 12:39:02;;;;;;;0.00;0.00;;;;;;;;;;5094751;28;20361;-72
2022/12/23 12:41:30;;;;;;;0.00;0.00;;;;;;;;;;5097673;28;20069;-72
2022/12/23 12:44:14;;;;;;;0.00;0.00;;;;;;;;;;5097245;28;20027;-72
2022/12/23 12:46:43;;;;;;;0.08;0.08;;;;;;;;;;5095481;28;20024;-72
2022/12/23 12:49:12;;;;;;;0.20;0.20;;;;;;;;;;5097529;28;20024;-70
2022/12/23 12:51:37;;;;;;;0.00;0.00;;;;;;;;;;5096894;28;20091;-71
2022/12/23 12:54:21;;;;;;;0.37;0.37;;;;;;;;;;5097401;28;20059;-70
2022/12/23 12:56:54;;;;;;;0.00;0.00;;;;;;;;;;5096782;28;20196;-72
2022/12/23 12:59:21;;;;;;;0.00;0.00;;;;;;;;;;5094709;28;20020;-70
2022/12/23 13:01:52;;;;;;;0.00;0.00;;;;;;;;;;5094703;28;20093;-70
2022/12/23 13:04:28;;;;;;;0.20;0.20;;;;;;;;;;5095175;28;20020;-71
2022/12/23 13:07:23;;;;;;;0.10;0.10;;;;;;;;;;5095420;28;20127;-71
2022/12/23 13:10:07;;;;;;;0.00;0.00;;;;;;;;;;5024872;28;20033;-73
2022/12/23 13:12:47;;;;;;;0.00;0.00;;;;;;;;;;5094205;28;20027;-71
2022/12/23 13:15:15;;;;;;;0.10;0.10;;;;;;;;;;5093544;28;20038;-70
2022/12/23 13:17:46;;;;;;;0.00;0.00;;;;;;;;;;5095806;28;20372;-70
2022/12/23 13:20:12;;;;;;;0.00;0.00;;;;;;;;;;5093246;28;20024;-70
2022/12/23 13:22:38;;;;;;;0.00;0.00;;;;;;;;;;5093286;28;20019;-71
2022/12/23 13:25:19;;;;;;;0.00;0.00;;;;;;;;;;5094469;28;20043;-70
2022/12/23 13:27:47;;;;;;;0.00;0.00;;;;;;;;;;5093435;28;20032;-70
2022/12/23 13:30:18;;;;;;;0.63;0.33;;;;;;;;;;5095413;28;20024;-71
2022/12/23 13:32:49;;;;;;;0.00;0.00;;;;;;;;;;5094567;28;20031;-75
2022/12/23 13:35:30;;;;;;;0.00;0.00;;;;;;;;;;5092736;28;20062;-73
2022/12/23 13:38:03;;;;;;;0.00;0.00;;;;;;;;;;5093183;28;20028;-73
2022/12/23 13:40:36;;;;;;;0.20;0.20;;;;;;;;;;5094783;28;20093;-72
2022/12/23 13:43:05;;;;;;;0.00;0.00;;;;;;;;;;5092374;28;20048;-72
2022/12/23 13:45:33;;;;;;;0.00;0.00;;;;;;;;;;5094016;28;20031;-71
2022/12/23 13:48:24;;;;;;;0.00;0.00;;;;;;;;;;5094649;28;20465;-72
2022/12/23 13:50:58;;;;;;;0.00;0.00;;;;;;;;;;5092724;28;20077;-72
2022/12/23 13:53:35;;;;;;;0.00;0.00;;;;;;;;;;5094182;28;20061;-71
2022/12/23 13:56:09;;;;;;;0.00;0.00;;;;;;;;;;5093658;28;20020;-71
2022/12/23 13:58:36;;;;;;;0.00;0.00;;;;;;;;;;5094573;28;20024;-74
2022/12/23 14:01:02;;;;;;;0.00;0.00;;;;;;;;;;5093455;28;20048;-71
2022/12/23 14:03:33;;;;;;;0.00;0.00;;;;;;;;;;5092122;28;20549;-73
2022/12/23 14:05:58;;;;;;;0.00;0.00;;;;;;;;;;5093551;28;20036;-72
2022/12/23 14:08:45;;;;;;;0.00;0.00;;;;;;;;;;5093434;28;20020;-70
2022/12/23 14:11:11;;;;;;;0.00;0.00;;;;;;;;;;5092123;28;20050;-72
2022/12/23 14:13:42;;;;;;;0.00;0.00;;;;;;;;;;5092176;28;20103;-71
2022/12/23 14:16:10;;;;;;;0.00;0.00;;;;;;;;;;5092527;28;20016;-74
2022/12/23 14:18:42;;;;;;;0.00;0.00;;;;;;;;;;5092854;28;20012;-72
2022/12/23 14:21:12;;;;;;;0.00;0.00;;;;;;;;;;5093216;28;20111;-75
2022/12/23 14:23:48;;;;;;;0.00;0.00;;;;;;;;;;5092880;28;20035;-72
2022/12/23 14:26:20;;;;;;;0.10;0.10;;;;;;;;;;5092543;28;20035;-71
2022/12/23 14:28:45;;;;;;;0.00;0.00;;;;;;;;;;5093322;28;20086;-72
2022/12/23 14:31:27;;;;;;;0.00;0.00;;;;;;;;;;5092001;28;20028;-71
2022/12/23 14:34:00;;;;;;;0.00;0.00;;;;;;;;;;5094142;28;20024;-72
2022/12/23 14:36:27;;;;;;;0.00;0.00;;;;;;;;;;5092298;28;20525;-72
2022/12/23 14:39:10;;;;;;;0.00;0.00;;;;;;;;;;5094252;28;20024;-72
2022/12/23 14:41:49;;;;;;;0.00;0.00;;;;;;;;;;5094949;28;20185;-73
2022/12/23 14:44:19;;;;;;;0.00;0.00;;;;;;;;;;5095112;28;20081;-73
2022/12/23 14:46:45;;;;;;;0.00;0.00;;;;;;;;;;5096070;28;20458;-72
2022/12/23 14:49:29;;;;;;;0.00;0.00;;;;;;;;;;5096988;28;20015;-73
2022/12/23 14:51:55;;;;;;;0.00;0.00;;;;;;;;;;5094356;28;20104;-74
2022/12/23 14:54:41;;;;;;;0.93;0.63;;;;;;;;;;5095266;28;20047;-71
2022/12/23 14:57:12;;;;;;;0.00;0.00;;;;;;;;;;5095077;28;20081;-73
2022/12/23 14:59:50;;;;;;;0.00;0.00;;;;;;;;;;5094893;28;20040;-72
2022/12/23 15:02:21;;;;;;;0.20;0.20;;;;;;;;;;5094322;28;20036;-73
2022/12/23 15:04:49;;;;;;;0.00;0.00;;;;;;;;;;5093676;28;20028;-72
2022/12/23 15:07:23;;;;;;;0.00;0.00;;;;;;;;;;5093800;28;20020;-73
2022/12/23 15:09:53;;;;;;;0.00;0.00;;;;;;;;;;5094821;28;20035;-72
2022/12/23 15:12:25;;;;;;;0.00;0.00;;;;;;;;;;5093281;28;20066;-72
2022/12/23 15:14:53;;;;;;;0.00;0.00;;;;;;;;;;5090977;28;20575;-73
2022/12/23 15:17:27;;;;;;;0.00;0.00;;;;;;;;;;5091652;28;20535;-72
2022/12/23 15:20:01;;;;;;;0.43;0.43;;;;;;;;;;5093039;28;20095;-72
2022/12/23 15:22:29;;;;;;;0.00;0.00;;;;;;;;;;5092557;28;20055;-71